GELEG DTTX-DAAV
Flight info
| Callsign | GELEG |
|---|---|
| Flight time | 0h 45m |
| Altitude | 34000 |
| Route | AMINA1A AMINA DCT ROGBA DCT JIL |
| Aircraft | E35L/M-SDFGIRWXY/SB1 |
Departure
| Time | 2026-05-04 16:44 |
|---|---|
| Airport | Sfax Thyna International Airport (DTTX) |
Arrival
| Time | 2026-05-04 17:30 |
|---|---|
| Airport | Jijel Ferhat Abbas Airport (DAAV) |
| Time | Latitude | Longitude | Altitude | Speed | Heading |
|---|---|---|---|---|---|
| 2026-05-04 16:43 | 34.80247 | 10.56909 | 9366 ft | 270 kts | 310° |
| 2026-05-04 16:44 | 34.84634 | 10.49436 | 13872 ft | 287 kts | 308° |
| 2026-05-04 16:45 | 34.86950 | 10.45476 | 16094 ft | 287 kts | 308° |
| 2026-05-04 16:46 | 34.90140 | 10.39141 | 18691 ft | 301 kts | 305° |
| 2026-05-04 16:46 | 34.92326 | 10.34772 | 20296 ft | 308 kts | 305° |
| 2026-05-04 16:47 | 34.94584 | 10.30245 | 21758 ft | 316 kts | 305° |
| 2026-05-04 16:47 | 34.96881 | 10.25626 | 23147 ft | 322 kts | 305° |
| 2026-05-04 16:48 | 35.00587 | 10.18166 | 25144 ft | 331 kts | 305° |
| 2026-05-04 16:48 | 35.01796 | 10.15729 | 25732 ft | 334 kts | 305° |
| 2026-05-04 16:49 | 35.04287 | 10.10701 | 26879 ft | 339 kts | 305° |
| 2026-05-04 16:49 | 35.06798 | 10.05624 | 27925 ft | 345 kts | 305° |
| 2026-05-04 16:50 | 35.09428 | 10.00299 | 28899 ft | 351 kts | 305° |
| 2026-05-04 16:50 | 35.12042 | 9.95001 | 29863 ft | 355 kts | 305° |
| 2026-05-04 16:51 | 35.14712 | 9.89578 | 30724 ft | 361 kts | 305° |
| 2026-05-04 16:51 | 35.16073 | 9.86811 | 31142 ft | 364 kts | 305° |
| 2026-05-04 16:51 | 35.18771 | 9.81321 | 31969 ft | 368 kts | 305° |
| 2026-05-04 16:52 | 35.21411 | 9.75939 | 32656 ft | 373 kts | 305° |
| 2026-05-04 16:52 | 35.22753 | 9.73199 | 33022 ft | 374 kts | 305° |
| 2026-05-04 16:53 | 35.25444 | 9.67701 | 33679 ft | 379 kts | 306° |
| 2026-05-04 16:53 | 35.29528 | 9.59339 | 34576 ft | 385 kts | 306° |
| 2026-05-04 16:54 | 35.30902 | 9.56522 | 34870 ft | 387 kts | 306° |
| 2026-05-04 16:55 | 35.36201 | 9.45633 | 36052 ft | 370 kts | 306° |
| 2026-05-04 16:55 | 35.38841 | 9.40194 | 36056 ft | 372 kts | 306° |
| 2026-05-04 16:56 | 35.45425 | 9.26595 | 36055 ft | 372 kts | 305° |
| 2026-05-04 16:57 | 35.49397 | 9.18364 | 36060 ft | 372 kts | 305° |
| 2026-05-04 16:58 | 35.54664 | 9.07424 | 36073 ft | 374 kts | 305° |
| 2026-05-04 17:00 | 35.61906 | 8.89863 | 36073 ft | 384 kts | 300° |
| 2026-05-04 17:01 | 35.67885 | 8.75182 | 36072 ft | 385 kts | 300° |
| 2026-05-04 17:02 | 35.72641 | 8.63464 | 36071 ft | 385 kts | 300° |
| 2026-05-04 17:03 | 35.76214 | 8.54634 | 36081 ft | 385 kts | 300° |
| 2026-05-04 17:03 | 35.79776 | 8.45807 | 36074 ft | 385 kts | 300° |
| 2026-05-04 17:04 | 35.84539 | 8.33963 | 36071 ft | 385 kts | 299° |
| 2026-05-04 17:05 | 35.89365 | 8.21919 | 36071 ft | 385 kts | 299° |
| 2026-05-04 17:06 | 35.92915 | 8.13035 | 36071 ft | 385 kts | 299° |
| 2026-05-04 17:07 | 35.96061 | 8.05135 | 36070 ft | 385 kts | 299° |
| 2026-05-04 17:07 | 35.98796 | 7.98257 | 36070 ft | 385 kts | 299° |
| 2026-05-04 17:08 | 36.02327 | 7.89351 | 36070 ft | 385 kts | 299° |
| 2026-05-04 17:09 | 36.04680 | 7.83403 | 36070 ft | 385 kts | 299° |
| 2026-05-04 17:09 | 36.07017 | 7.77485 | 36070 ft | 385 kts | 299° |
| 2026-05-04 17:10 | 36.12855 | 7.62655 | 36076 ft | 385 kts | 299° |
| 2026-05-04 17:11 | 36.15255 | 7.56761 | 36071 ft | 383 kts | 305° |
| 2026-05-04 17:12 | 36.19422 | 7.48331 | 36076 ft | 383 kts | 305° |
| 2026-05-04 17:13 | 36.26341 | 7.34267 | 36075 ft | 384 kts | 304° |
| 2026-05-04 17:14 | 36.31950 | 7.22821 | 36076 ft | 383 kts | 304° |
| 2026-05-04 17:15 | 36.36099 | 7.14333 | 36075 ft | 386 kts | 304° |
| 2026-05-04 17:16 | 36.41699 | 7.02840 | 36073 ft | 393 kts | 303° |
| 2026-05-04 17:17 | 36.47366 | 6.91164 | 36074 ft | 396 kts | 302° |
| 2026-05-04 17:18 | 36.53046 | 6.79421 | 36061 ft | 396 kts | 302° |
| 2026-05-04 17:19 | 36.58706 | 6.67682 | 36040 ft | 396 kts | 302° |
| 2026-05-04 17:20 | 36.64341 | 6.55953 | 36021 ft | 394 kts | 302° |
| 2026-05-04 17:20 | 36.67040 | 6.50322 | 34612 ft | 383 kts | 302° |
| 2026-05-04 17:20 | 36.68412 | 6.47458 | 33124 ft | 397 kts | 302° |
| 2026-05-04 17:21 | 36.71169 | 6.41686 | 29766 ft | 393 kts | 302° |
| 2026-05-04 17:21 | 36.73910 | 6.35945 | 25337 ft | 394 kts | 302° |
| 2026-05-04 17:22 | 36.75246 | 6.33137 | 23761 ft | 377 kts | 302° |
| 2026-05-04 17:22 | 36.76539 | 6.30422 | 22121 ft | 364 kts | 302° |
| 2026-05-04 17:23 | 36.80198 | 6.22727 | 17129 ft | 345 kts | 302° |
| 2026-05-04 17:23 | 36.81418 | 6.20158 | 16162 ft | 337 kts | 302° |
| 2026-05-04 17:23 | 36.83717 | 6.15308 | 14493 ft | 323 kts | 302° |
| 2026-05-04 17:24 | 36.84834 | 6.12951 | 13564 ft | 319 kts | 301° |
| 2026-05-04 17:24 | 36.87980 | 6.06293 | 10863 ft | 272 kts | 302° |
| 2026-05-04 17:25 | 36.88920 | 6.04304 | 9968 ft | 260 kts | 302° |
| 2026-05-04 17:25 | 36.90683 | 6.00570 | 8205 ft | 246 kts | 302° |
| 2026-05-04 17:26 | 36.92374 | 5.96957 | 6441 ft | 240 kts | 302° |
| 2026-05-04 17:26 | 36.94065 | 5.91396 | 3843 ft | 236 kts | 271° |
| 2026-05-04 17:27 | 36.93147 | 5.87789 | 2539 ft | 221 kts | 223° |
| 2026-05-04 17:27 | 36.90949 | 5.85345 | 2071 ft | 199 kts | 221° |
| 2026-05-04 17:28 | 36.88502 | 5.85304 | 1618 ft | 186 kts | 147° |
| 2026-05-04 17:29 | 36.84884 | 5.86289 | 909 ft | 169 kts | 170° |
| 2026-05-04 17:29 | 36.81589 | 5.86941 | 255 ft | 151 kts | 170° |
| 2026-05-04 17:30 | 36.79469 | 5.87401 | 26 ft | 15 kts | 115° |
| 2026-05-04 17:31 | 36.79475 | 5.87627 | 27 ft | 3 kts | 82° |
| 2026-05-04 17:31 | 36.79475 | 5.87629 | 27 ft | 0 kts | 82° |